createdAt,value
2019-04-22T00:01:34.147Z,24.87
2019-04-22T00:04:10.016Z,24.23
2019-04-22T00:06:59.815Z,24.33
2019-04-22T00:09:42.169Z,24.50
2019-04-22T00:12:16.764Z,24.20
2019-04-22T00:14:35.390Z,25.50
2019-04-22T00:17:18.484Z,24.37
2019-04-22T00:19:55.591Z,23.80
2019-04-22T00:22:22.192Z,24.07
2019-04-22T00:24:50.745Z,24.50
2019-04-22T00:27:28.092Z,25.67
2019-04-22T00:32:49.279Z,23.70
2019-04-22T00:35:19.297Z,24.23
2019-04-22T00:37:58.397Z,24.43
2019-04-22T00:42:58.355Z,23.50
2019-04-22T00:45:34.442Z,23.33
2019-04-22T00:48:14.410Z,24.53
2019-04-22T00:50:49.596Z,23.10
2019-04-22T00:53:16.257Z,23.00
2019-04-22T01:01:31.752Z,22.90
2019-04-22T01:03:59.039Z,22.17
2019-04-22T01:09:00.240Z,21.33
2019-04-22T01:11:29.484Z,22.80
2019-04-22T01:14:01.268Z,22.13
2019-04-22T01:16:48.539Z,21.97
2019-04-22T01:19:07.650Z,22.23
2019-04-22T01:21:40.291Z,21.73
2019-04-22T01:24:09.178Z,22.57
2019-04-22T01:26:38.880Z,22.37
2019-04-22T01:29:08.344Z,22.73
2019-04-22T01:31:34.360Z,23.00
2019-04-22T01:34:16.029Z,23.87
2019-04-22T01:36:52.817Z,24.50
2019-04-22T01:39:37.806Z,25.00
2019-04-22T01:42:06.077Z,24.30
2019-04-22T01:44:39.723Z,24.93
2019-04-22T01:47:13.151Z,23.73
2019-04-22T01:49:46.100Z,23.47
2019-04-22T01:52:15.461Z,23.03
2019-04-22T01:54:54.602Z,24.40
2019-04-22T01:57:18.809Z,24.83
2019-04-22T01:59:45.811Z,23.93
2019-04-22T02:02:30.370Z,25.67
2019-04-22T02:04:59.947Z,24.00
2019-04-22T02:07:34.489Z,24.40
2019-04-22T02:10:02.247Z,24.30
2019-04-22T02:15:07.446Z,23.77
2019-04-22T02:20:12.349Z,24.00
2019-04-22T02:28:47.995Z,24.57
2019-04-22T02:31:25.985Z,24.00
2019-04-22T02:49:11.137Z,22.67
2019-04-22T02:51:32.851Z,23.07
2019-04-22T02:56:43.844Z,22.10
2019-04-22T02:59:14.111Z,22.87
2019-04-22T03:06:49.553Z,22.00
2019-04-22T03:09:28.632Z,23.73
2019-04-22T03:14:22.918Z,23.20
2019-04-22T03:16:50.513Z,22.60
2019-04-22T03:22:00.662Z,23.00
2019-04-22T03:27:19.668Z,22.13
2019-04-22T03:40:25.193Z,22.87
2019-04-22T03:43:02.520Z,21.83
2019-04-22T03:50:29.014Z,21.23
2019-04-22T03:53:11.151Z,22.77
2019-04-22T03:55:41.294Z,22.30
2019-04-22T03:58:11.049Z,21.40
2019-04-22T04:00:50.121Z,22.20
2019-04-22T04:05:57.640Z,22.23
2019-04-22T04:08:26.743Z,21.87
2019-04-22T04:10:55.701Z,22.60
2019-04-22T04:15:57.591Z,22.47
2019-04-22T04:18:39.304Z,22.23
2019-04-22T04:21:22.794Z,21.60
2019-04-22T04:31:25.018Z,22.67
2019-04-22T04:33:50.854Z,22.27
2019-04-22T04:36:54.938Z,21.53
2019-04-22T04:38:58.423Z,22.17
2019-04-22T04:44:01.473Z,21.23
2019-04-22T04:49:13.063Z,21.47
2019-04-22T04:51:47.220Z,21.17
2019-04-22T05:01:45.139Z,21.33
2019-04-22T05:04:40.872Z,20.63
2019-04-22T05:06:59.869Z,21.03
2019-04-22T05:12:03.465Z,20.27
2019-04-22T05:16:54.895Z,20.07
2019-04-22T05:19:26.162Z,20.33
2019-04-22T05:22:00.337Z,18.67
2019-04-22T05:27:13.412Z,18.13
2019-04-22T05:29:58.254Z,18.30
2019-04-22T05:32:09.166Z,19.63
2019-04-22T05:34:40.175Z,18.47
2019-04-22T05:37:16.005Z,18.07
2019-04-22T05:39:52.694Z,18.23
2019-04-22T05:42:18.052Z,18.10
2019-04-22T05:44:49.694Z,17.43
2019-04-22T05:47:19.455Z,17.53
2019-04-22T05:49:59.634Z,17.00
2019-04-22T05:52:54.399Z,17.17
2019-04-22T05:55:33.302Z,15.90
2019-04-22T05:57:57.828Z,16.07
2019-04-22T06:01:00.039Z,15.87
2019-04-22T06:03:02.617Z,16.07
2019-04-22T06:05:35.975Z,16.03
2019-04-22T06:08:13.332Z,14.63
2019-04-22T06:10:50.390Z,16.30
2019-04-22T06:13:09.968Z,15.97
2019-04-22T06:15:51.280Z,15.53
2019-04-22T06:23:36.027Z,12.70
2019-04-22T06:26:10.025Z,13.33
2019-04-22T06:28:40.638Z,13.20
2019-04-22T06:31:10.971Z,13.03
2019-04-22T06:33:40.558Z,12.27
2019-04-22T06:36:15.739Z,12.30
2019-04-22T06:38:59.061Z,11.50
2019-04-22T06:41:25.298Z,11.23
2019-04-22T06:43:56.171Z,12.27
2019-04-22T06:46:22.448Z,11.23
2019-04-22T06:48:56.300Z,11.87
2019-04-22T06:51:27.013Z,10.90
2019-04-22T06:54:01.818Z,10.67
2019-04-22T06:56:27.816Z,11.50
2019-04-22T06:59:06.885Z,10.90
2019-04-22T07:01:42.717Z,11.07
2019-04-22T07:04:09.241Z,10.27
2019-04-22T07:11:43.231Z,10.17
2019-04-22T07:14:28.586Z,10.53
2019-04-22T07:16:51.325Z,9.93
2019-04-22T07:21:57.714Z,8.60
2019-04-22T07:27:00.511Z,7.50
2019-04-22T07:29:32.504Z,6.90
2019-04-22T07:37:22.791Z,5.77
2019-04-22T07:39:41.727Z,5.93
2019-04-22T07:42:19.126Z,5.70
2019-04-22T07:49:50.832Z,5.27
2019-04-22T07:52:24.476Z,5.20
2019-04-22T07:54:56.830Z,4.97
2019-04-22T07:57:32.457Z,4.80
2019-04-22T08:00:04.111Z,5.60
2019-04-22T08:02:39.149Z,5.30
2019-04-22T08:05:22.437Z,5.03
2019-04-22T08:07:35.540Z,5.03
2019-04-22T08:10:17.271Z,4.83
2019-04-22T08:12:47.341Z,5.00
2019-04-22T08:15:13.066Z,5.10
2019-04-22T08:17:55.994Z,4.90
2019-04-22T08:23:09.159Z,5.03
2019-04-22T08:25:38.893Z,5.07
2019-04-22T08:28:10.660Z,5.00
2019-04-22T08:30:51.945Z,4.60
2019-04-22T08:33:24.475Z,4.70
2019-04-22T08:36:10.784Z,5.60
2019-04-22T08:38:25.588Z,4.80
2019-04-22T08:44:02.527Z,5.20
2019-04-22T08:46:42.026Z,5.20
2019-04-22T08:48:59.073Z,5.57
2019-04-22T08:51:38.403Z,5.03
2019-04-22T08:54:09.711Z,5.20
2019-04-22T08:56:37.713Z,5.50
2019-04-22T08:59:12.177Z,4.97
2019-04-22T09:01:37.664Z,5.40
2019-04-22T09:04:16.786Z,5.23
2019-04-22T09:07:02.451Z,4.87
2019-04-22T09:09:21.304Z,5.00
2019-04-22T09:11:57.746Z,4.33
2019-04-22T09:14:26.073Z,5.10
2019-04-22T09:17:02.005Z,5.03
2019-04-22T09:19:30.906Z,5.20
2019-04-22T09:22:00.046Z,4.50
2019-04-22T09:24:36.136Z,5.93
2019-04-22T09:27:11.569Z,4.63
2019-04-22T09:29:40.038Z,4.90
2019-04-22T09:32:11.634Z,5.07
2019-04-22T09:34:47.047Z,4.80
2019-04-22T09:37:29.002Z,5.07
2019-04-22T09:40:02.988Z,4.50
2019-04-22T09:45:00.280Z,4.70
2019-04-22T09:47:33.749Z,4.80
2019-04-22T09:50:03.752Z,4.63
2019-04-22T09:52:35.983Z,4.43
2019-04-22T09:57:38.411Z,5.20
2019-04-22T10:02:51.768Z,4.77
2019-04-22T10:05:23.821Z,4.30
2019-04-22T10:07:54.444Z,4.47
2019-04-22T10:10:20.503Z,4.37
2019-04-22T10:12:55.734Z,4.50
2019-04-22T10:15:25.232Z,4.17
2019-04-22T10:17:57.954Z,4.10
2019-04-22T10:20:31.170Z,4.10
2019-04-22T10:23:05.884Z,3.70
2019-04-22T10:25:35.042Z,3.83
2019-04-22T10:28:15.658Z,4.10
2019-04-22T10:30:47.336Z,4.20
2019-04-22T10:33:12.243Z,3.70
2019-04-22T10:35:23.611Z,3.60
2019-04-22T10:37:52.519Z,4.10
2019-04-22T10:40:42.854Z,3.57
2019-04-22T10:43:13.310Z,3.53
2019-04-22T10:45:44.097Z,3.83
2019-04-22T10:48:14.673Z,4.50
2019-04-22T10:50:48.767Z,4.37
2019-04-22T10:53:21.688Z,3.93
2019-04-22T10:55:54.234Z,4.30
2019-04-22T10:58:24.956Z,3.70
2019-04-22T11:00:56.286Z,4.20
2019-04-22T11:03:28.563Z,3.23
2019-04-22T11:05:59.471Z,3.70
2019-04-22T11:08:40.295Z,3.50
2019-04-22T11:11:16.874Z,3.57
2019-04-22T11:13:35.871Z,3.20
2019-04-22T11:16:07.721Z,3.07
2019-04-22T11:18:38.123Z,3.13
2019-04-22T11:21:09.683Z,3.00
2019-04-22T11:23:40.773Z,3.23
2019-04-22T11:26:12.109Z,3.23
2019-04-22T11:28:43.385Z,2.83
2019-04-22T11:31:14.769Z,2.80
2019-04-22T11:33:45.325Z,2.90
2019-04-22T11:36:15.997Z,3.07
2019-04-22T11:38:54.051Z,2.73
2019-04-22T11:41:19.516Z,3.00
2019-04-22T11:43:51.287Z,2.80
2019-04-22T11:46:23.159Z,2.67
2019-04-22T11:48:54.135Z,2.80
2019-04-22T11:51:24.863Z,2.93
2019-04-22T11:53:56.570Z,3.23
2019-04-22T11:56:27.457Z,2.93
2019-04-22T11:58:57.782Z,2.70
2019-04-22T12:01:28.833Z,3.07
2019-04-22T12:03:59.936Z,3.00
2019-04-22T12:06:31.799Z,3.33
2019-04-22T12:09:03.830Z,3.03
2019-04-22T12:11:34.539Z,2.63
2019-04-22T12:14:06.271Z,3.30
2019-04-22T12:16:37.192Z,3.37
2019-04-22T12:19:09.096Z,3.30
2019-04-22T12:21:39.703Z,3.80
2019-04-22T12:24:10.943Z,3.60
2019-04-22T12:26:42.365Z,3.60
2019-04-22T12:29:13.212Z,3.57
2019-04-22T12:31:45.183Z,3.50
2019-04-22T12:34:15.696Z,3.40
2019-04-22T12:36:46.833Z,3.57
2019-04-22T12:39:17.868Z,3.60
2019-04-22T12:41:48.326Z,3.17
2019-04-22T12:44:20.120Z,3.37
2019-04-22T12:46:52.250Z,3.37
2019-04-22T12:49:22.961Z,3.37
2019-04-22T12:51:54.784Z,3.10
2019-04-22T12:54:26.834Z,2.90
2019-04-22T12:56:57.777Z,3.07
2019-04-22T12:59:29.785Z,3.10
2019-04-22T13:02:00.718Z,2.70
2019-04-22T13:04:32.268Z,3.17
2019-04-22T13:07:03.898Z,2.87
2019-04-22T13:09:34.300Z,2.87
2019-04-22T13:12:04.941Z,2.87
2019-04-22T13:14:36.581Z,3.10
2019-04-22T13:17:08.132Z,3.30
2019-04-22T13:19:40.300Z,3.40
2019-04-22T13:22:10.825Z,3.00
2019-04-22T13:24:41.733Z,3.30
2019-04-22T13:27:12.970Z,3.67
2019-04-22T13:29:43.533Z,3.30
2019-04-22T13:32:14.169Z,3.80
2019-04-22T13:34:49.446Z,3.70
2019-04-22T13:37:17.033Z,3.23
2019-04-22T13:39:48.998Z,3.40
2019-04-22T13:42:25.055Z,3.80
2019-04-22T13:44:55.929Z,3.87
2019-04-22T13:47:42.392Z,3.30
2019-04-22T13:50:34.514Z,3.80
2019-04-22T13:55:36.637Z,4.20
2019-04-22T13:57:53.412Z,4.33
2019-04-22T14:00:12.124Z,4.07
2019-04-22T14:03:08.741Z,4.87
2019-04-22T14:05:40.624Z,4.30
2019-04-22T14:08:24.984Z,4.57
2019-04-22T14:10:57.844Z,4.20
2019-04-22T14:13:28.069Z,4.97
2019-04-22T14:15:59.407Z,4.53
2019-04-22T14:18:30.779Z,4.40
2019-04-22T14:21:02.866Z,5.30
2019-04-22T14:23:34.852Z,4.17
2019-04-22T14:26:42.813Z,4.17
2019-04-22T14:28:49.942Z,4.27
2019-04-22T14:31:20.487Z,4.70
2019-04-22T14:36:23.461Z,4.00
2019-04-22T14:38:54.388Z,5.87
2019-04-22T14:41:51.476Z,4.13
2019-04-22T14:44:04.583Z,4.40
2019-04-22T14:44:56.423Z,4.30
2019-04-22T14:47:04.052Z,4.20
2019-04-22T14:49:31.451Z,3.50
2019-04-22T14:52:00.419Z,4.23
2019-04-22T14:54:24.220Z,3.73
2019-04-22T14:56:40.455Z,3.70
2019-04-22T14:59:11.338Z,4.07
2019-04-22T15:01:41.759Z,3.63
2019-04-22T15:04:13.310Z,4.03
2019-04-22T15:06:47.076Z,4.20
2019-04-22T15:09:17.443Z,3.90
2019-04-22T15:12:00.839Z,4.07
2019-04-22T15:14:21.453Z,3.47
2019-04-22T15:17:14.851Z,3.97
2019-04-22T15:19:58.067Z,3.97
2019-04-22T15:22:28.562Z,4.03
2019-04-22T15:24:58.907Z,3.70
2019-04-22T15:27:31.052Z,3.67
2019-04-22T15:30:03.402Z,3.83
2019-04-22T15:32:39.069Z,3.70
2019-04-22T15:35:11.470Z,3.60
2019-04-22T15:37:43.333Z,3.47
2019-04-22T15:40:14.063Z,3.73
2019-04-22T15:42:45.270Z,3.73
2019-04-22T15:45:18.792Z,3.20
2019-04-22T15:47:52.360Z,3.53
2019-04-22T15:50:24.545Z,3.20
2019-04-22T15:52:57.505Z,3.80
2019-04-22T15:55:28.949Z,3.40
2019-04-22T15:57:59.613Z,3.77
2019-04-22T16:00:42.260Z,3.40
2019-04-22T16:03:06.044Z,3.10
2019-04-22T16:05:36.246Z,3.50
2019-04-22T16:08:06.878Z,3.10
2019-04-22T16:10:37.918Z,3.20
2019-04-22T16:13:16.126Z,3.40
2019-04-22T16:15:42.529Z,3.10
2019-04-22T16:18:15.146Z,2.97
2019-04-22T16:20:46.182Z,3.30
2019-04-22T16:23:34.110Z,3.17
2019-04-22T16:26:26.358Z,2.70
2019-04-22T16:28:59.222Z,3.00
2019-04-22T16:31:29.413Z,2.70
2019-04-22T16:34:00.504Z,2.73
2019-04-22T16:36:31.390Z,3.03
2019-04-22T16:39:02.734Z,2.40
2019-04-22T16:41:33.181Z,2.63
2019-04-22T16:44:04.683Z,2.33
2019-04-22T16:46:34.992Z,2.93
2019-04-22T16:49:09.692Z,2.33
2019-04-22T16:51:40.329Z,2.50
2019-04-22T16:54:11.779Z,2.40
2019-04-22T16:56:43.904Z,2.93
2019-04-22T16:59:14.958Z,2.00
2019-04-22T17:02:04.463Z,2.10
2019-04-22T17:05:09.489Z,1.87
2019-04-22T17:07:40.273Z,1.97
2019-04-22T17:10:11.211Z,1.37
2019-04-22T17:12:53.213Z,1.50
2019-04-22T17:15:16.301Z,1.57
2019-04-22T17:17:47.353Z,1.53
2019-04-22T17:20:18.502Z,1.83
2019-04-22T17:22:49.503Z,1.90
2019-04-22T17:25:20.539Z,1.93
2019-04-22T17:27:51.940Z,2.07
2019-04-22T17:30:24.380Z,2.00
2019-04-22T17:32:56.627Z,1.97
2019-04-22T17:35:34.030Z,1.80
2019-04-22T17:38:12.683Z,2.10
2019-04-22T17:40:51.028Z,2.00
2019-04-22T17:43:40.637Z,2.17
2019-04-22T17:46:15.057Z,1.90
2019-04-22T17:49:02.776Z,1.87
2019-04-22T17:51:31.441Z,1.60
2019-04-22T17:54:21.433Z,2.03
2019-04-22T17:56:37.810Z,1.83
2019-04-22T17:59:15.597Z,1.80
2019-04-22T18:01:43.739Z,1.57
2019-04-22T18:03:59.518Z,2.57
2019-04-22T18:06:55.382Z,1.90
2019-04-22T18:09:19.501Z,1.87
2019-04-22T18:12:00.980Z,1.90
2019-04-22T18:17:00.157Z,1.80
2019-04-22T18:19:26.203Z,2.03
2019-04-22T18:21:57.186Z,1.97
2019-04-22T18:24:21.987Z,1.70
2019-04-22T18:27:18.995Z,1.70
2019-04-22T18:29:37.446Z,1.70
2019-04-22T18:32:08.808Z,1.50
2019-04-22T18:34:39.888Z,1.43
2019-04-22T18:37:18.453Z,1.73
2019-04-22T18:39:52.773Z,1.33
2019-04-22T18:42:21.994Z,1.50
2019-04-22T18:45:09.899Z,1.40
2019-04-22T18:47:25.322Z,1.37
2019-04-22T18:50:00.269Z,1.27
2019-04-22T18:53:10.994Z,1.30
2019-04-22T18:55:33.767Z,1.07
2019-04-22T18:58:08.488Z,1.40
2019-04-22T19:00:34.219Z,1.43
2019-04-22T19:03:12.946Z,1.50
2019-04-22T19:06:09.530Z,1.20
2019-04-22T19:08:31.503Z,1.17
2019-04-22T19:11:14.008Z,1.30
2019-04-22T19:18:50.509Z,1.23
2019-04-22T19:21:16.176Z,1.20
2019-04-22T19:23:52.004Z,1.30
2019-04-22T19:26:33.899Z,1.20
2019-04-22T19:28:54.092Z,2.43
2019-04-22T19:31:29.840Z,1.23
2019-04-22T19:34:01.201Z,1.30
2019-04-22T19:36:36.288Z,1.40
2019-04-22T19:38:59.011Z,1.57
2019-04-22T19:41:59.195Z,1.33
2019-04-22T19:44:10.547Z,1.43
2019-04-22T19:46:42.201Z,1.10
2019-04-22T19:49:23.782Z,1.30
2019-04-22T19:51:56.071Z,1.40
2019-04-22T19:54:17.446Z,1.30
2019-04-22T19:56:40.433Z,1.30
2019-04-22T19:59:23.541Z,1.47
2019-04-22T20:02:15.998Z,2.03
2019-04-22T20:05:11.138Z,1.60
2019-04-22T20:07:38.202Z,1.43
2019-04-22T20:10:19.042Z,1.50
2019-04-22T20:12:42.900Z,1.63
2019-04-22T20:15:20.013Z,1.60
2019-04-22T20:18:15.625Z,1.77
2019-04-22T20:20:27.236Z,1.40
2019-04-22T20:22:52.319Z,1.60
2019-04-22T20:25:31.372Z,1.30
2019-04-22T20:28:07.503Z,1.80
2019-04-22T20:30:39.902Z,1.70
2019-04-22T20:33:10.738Z,1.23
2019-04-22T20:35:43.989Z,1.60
2019-04-22T20:38:13.562Z,1.30
2019-04-22T20:40:42.518Z,1.53
2019-04-22T20:43:29.266Z,1.70
2019-04-22T20:45:51.161Z,1.90
2019-04-22T20:48:15.850Z,1.63
2019-04-22T20:50:59.587Z,1.57
2019-04-22T20:53:29.891Z,1.80
2019-04-22T20:56:02.645Z,1.73
2019-04-22T20:58:34.280Z,1.80
2019-04-22T21:00:55.592Z,1.60
2019-04-22T21:03:28.458Z,1.60
2019-04-22T21:06:06.888Z,1.50
2019-04-22T21:08:42.159Z,2.00
2019-04-22T21:11:13.714Z,1.60
2019-04-22T21:13:41.114Z,1.60
2019-04-22T21:16:22.374Z,1.47
2019-04-22T21:18:46.117Z,1.60
2019-04-22T21:21:32.186Z,1.70
2019-04-22T21:23:53.941Z,2.00
2019-04-22T21:26:29.373Z,1.70
2019-04-22T21:29:04.343Z,1.50
2019-04-22T21:31:43.806Z,1.63
2019-04-22T21:34:05.298Z,1.80
2019-04-22T21:36:42.984Z,1.40
2019-04-22T21:39:12.584Z,1.73
2019-04-22T21:41:47.304Z,1.63
2019-04-22T21:44:21.380Z,1.70
2019-04-22T21:46:59.714Z,1.50
2019-04-22T21:49:28.007Z,1.50
2019-04-22T21:52:13.878Z,1.50
2019-04-22T21:54:28.281Z,1.70
2019-04-22T21:57:18.868Z,1.60
2019-04-22T21:59:40.220Z,1.30
2019-04-22T22:02:25.181Z,1.47
2019-04-22T22:04:47.297Z,1.60
2019-04-22T22:07:09.816Z,1.60
2019-04-22T22:09:53.761Z,1.70
2019-04-22T22:12:24.228Z,1.50
2019-04-22T22:15:04.104Z,1.77
2019-04-22T22:17:31.110Z,1.83
2019-04-22T22:19:57.751Z,1.70
2019-04-22T22:22:50.134Z,1.27
2019-04-22T22:25:07.792Z,1.90
2019-04-22T22:27:41.093Z,1.57
2019-04-22T22:32:49.771Z,1.63
2019-04-22T22:35:20.492Z,1.80
2019-04-22T22:37:50.684Z,1.57
2019-04-22T22:40:10.636Z,1.87
2019-04-22T22:42:44.460Z,2.03
2019-04-22T22:45:30.132Z,1.80
2019-04-22T22:48:13.393Z,1.73
2019-04-22T22:50:44.615Z,1.77
2019-04-22T22:53:22.373Z,1.80
2019-04-22T22:55:46.381Z,1.50
2019-04-22T22:58:23.821Z,1.70
2019-04-22T23:00:44.067Z,1.63
2019-04-22T23:03:40.533Z,1.90
2019-04-22T23:06:03.531Z,1.63
2019-04-22T23:08:34.363Z,2.37
2019-04-22T23:11:05.362Z,2.07
2019-04-22T23:13:40.333Z,2.10
2019-04-22T23:16:00.807Z,2.20
2019-04-22T23:18:17.725Z,2.30
2019-04-22T23:20:51.495Z,2.60
2019-04-22T23:23:37.897Z,2.10
2019-04-22T23:26:29.824Z,2.27
2019-04-22T23:29:05.043Z,2.60
2019-04-22T23:31:39.963Z,2.60
2019-04-22T23:34:19.855Z,2.40
2019-04-22T23:37:08.438Z,2.57
2019-04-22T23:39:53.450Z,2.50
2019-04-22T23:42:21.889Z,2.27
2019-04-22T23:44:56.268Z,2.50
2019-04-22T23:47:34.983Z,2.03
2019-04-22T23:50:23.744Z,2.17
2019-04-22T23:52:53.056Z,2.60
2019-04-22T23:55:26.043Z,2.47
2019-04-22T23:58:03.512Z,2.73
